Terminal Aerodrome Forecast
Issued by NWS

Home | Current Version | Previous Version | Text Only | Print | Product List | Glossary Off
Versions: 1 2 3 4 5 6 7 8 9 10 11 12 13 14

000
FTUS43 KABR 221100
TAFMBG
TAF
KMBG 221129Z 2212/2312 11011KT P6SM SCT200
     FM221500 13022G32KT P6SM SCT150
     FM230200 11025KT P6SM VCSH BKN100=

USA.gov is the U.S. government's official web portal to all federal, state and local government web resources and services.